sensor_id;sensor_type;location;lat;lon;timestamp;P1;durP1;ratioP1;P2;durP2;ratioP2
5845;SDS011;2949;50.778;7.094;2022-09-13T00:01:36;3.77;;;3.17;;
5845;SDS011;2949;50.778;7.094;2022-09-13T00:04:01;6.73;;;3.00;;
5845;SDS011;2949;50.778;7.094;2022-09-13T00:06:28;6.83;;;3.90;;
5845;SDS011;2949;50.778;7.094;2022-09-13T00:08:54;8.10;;;3.40;;
5845;SDS011;2949;50.778;7.094;2022-09-13T00:11:21;3.43;;;2.90;;
5845;SDS011;2949;50.778;7.094;2022-09-13T00:13:49;4.47;;;3.03;;
5845;SDS011;2949;50.778;7.094;2022-09-13T00:16:16;3.47;;;3.17;;
5845;SDS011;2949;50.778;7.094;2022-09-13T00:18:43;10.90;;;3.00;;
5845;SDS011;2949;50.778;7.094;2022-09-13T00:21:12;5.27;;;3.10;;
5845;SDS011;2949;50.778;7.094;2022-09-13T00:23:42;4.30;;;3.00;;
5845;SDS011;2949;50.778;7.094;2022-09-13T00:26:10;4.47;;;3.20;;
5845;SDS011;2949;50.778;7.094;2022-09-13T00:28:38;3.50;;;3.10;;
5845;SDS011;2949;50.778;7.094;2022-09-13T00:31:04;15.13;;;3.73;;
5845;SDS011;2949;50.778;7.094;2022-09-13T00:33:31;3.50;;;3.20;;
5845;SDS011;2949;50.778;7.094;2022-09-13T00:35:57;3.20;;;3.00;;
5845;SDS011;2949;50.778;7.094;2022-09-13T00:38:23;3.63;;;3.27;;
5845;SDS011;2949;50.778;7.094;2022-09-13T00:40:49;3.50;;;2.90;;
5845;SDS011;2949;50.778;7.094;2022-09-13T00:43:19;3.10;;;2.90;;
5845;SDS011;2949;50.778;7.094;2022-09-13T00:45:46;5.77;;;3.57;;
5845;SDS011;2949;50.778;7.094;2022-09-13T00:48:20;3.47;;;2.90;;
5845;SDS011;2949;50.778;7.094;2022-09-13T00:50:50;4.27;;;3.67;;
5845;SDS011;2949;50.778;7.094;2022-09-13T00:53:19;3.33;;;2.93;;
5845;SDS011;2949;50.778;7.094;2022-09-13T00:55:51;3.50;;;3.20;;
5845;SDS011;2949;50.778;7.094;2022-09-13T00:58:34;6.17;;;3.50;;
5845;SDS011;2949;50.778;7.094;2022-09-13T01:01:03;4.53;;;3.87;;
5845;SDS011;2949;50.778;7.094;2022-09-13T01:03:33;6.87;;;3.30;;
5845;SDS011;2949;50.778;7.094;2022-09-13T01:06:01;4.00;;;3.70;;
5845;SDS011;2949;50.778;7.094;2022-09-13T01:08:30;4.40;;;3.37;;
5845;SDS011;2949;50.778;7.094;2022-09-13T01:10:58;4.23;;;3.63;;
5845;SDS011;2949;50.778;7.094;2022-09-13T01:13:27;4.47;;;3.53;;
5845;SDS011;2949;50.778;7.094;2022-09-13T01:15:56;4.73;;;3.83;;
5845;SDS011;2949;50.778;7.094;2022-09-13T01:18:22;7.27;;;3.50;;
5845;SDS011;2949;50.778;7.094;2022-09-13T01:24:11;5.03;;;3.60;;
5845;SDS011;2949;50.778;7.094;2022-09-13T01:32:57;7.50;;;3.67;;
5845;SDS011;2949;50.778;7.094;2022-09-13T01:35:40;4.33;;;3.30;;
5845;SDS011;2949;50.778;7.094;2022-09-13T01:40:46;3.73;;;3.43;;
5845;SDS011;2949;50.778;7.094;2022-09-13T01:57:40;3.90;;;3.60;;
5845;SDS011;2949;50.778;7.094;2022-09-13T02:00:14;2.90;;;2.70;;
5845;SDS011;2949;50.778;7.094;2022-09-13T02:02:43;4.13;;;3.73;;
5845;SDS011;2949;50.778;7.094;2022-09-13T02:08:30;3.30;;;3.00;;
5845;SDS011;2949;50.778;7.094;2022-09-13T02:10:38;3.87;;;3.13;;
5845;SDS011;2949;50.778;7.094;2022-09-13T02:13:10;4.93;;;3.20;;
5845;SDS011;2949;50.778;7.094;2022-09-13T02:15:47;3.67;;;3.37;;
5845;SDS011;2949;50.778;7.094;2022-09-13T02:18:26;3.70;;;3.10;;
5845;SDS011;2949;50.778;7.094;2022-09-13T02:20:57;3.80;;;3.50;;
5845;SDS011;2949;50.778;7.094;2022-09-13T02:23:35;7.43;;;3.53;;
5845;SDS011;2949;50.778;7.094;2022-09-13T02:26:05;4.90;;;2.90;;
5845;SDS011;2949;50.778;7.094;2022-09-13T02:28:35;3.87;;;3.47;;
5845;SDS011;2949;50.778;7.094;2022-09-13T02:31:06;3.87;;;3.40;;
5845;SDS011;2949;50.778;7.094;2022-09-13T02:33:51;3.13;;;2.93;;
5845;SDS011;2949;50.778;7.094;2022-09-13T02:36:25;3.60;;;3.30;;
5845;SDS011;2949;50.778;7.094;2022-09-13T02:39:01;4.60;;;3.40;;
5845;SDS011;2949;50.778;7.094;2022-09-13T02:41:31;3.93;;;3.20;;
5845;SDS011;2949;50.778;7.094;2022-09-13T02:44:21;4.37;;;3.17;;
5845;SDS011;2949;50.778;7.094;2022-09-13T02:46:58;4.77;;;3.43;;
5845;SDS011;2949;50.778;7.094;2022-09-13T02:49:45;3.60;;;3.30;;
5845;SDS011;2949;50.778;7.094;2022-09-13T02:55:20;4.07;;;3.00;;
5845;SDS011;2949;50.778;7.094;2022-09-13T02:57:51;6.27;;;3.33;;
5845;SDS011;2949;50.778;7.094;2022-09-13T03:00:18;3.57;;;2.90;;
5845;SDS011;2949;50.778;7.094;2022-09-13T03:02:45;4.30;;;2.80;;
5845;SDS011;2949;50.778;7.094;2022-09-13T03:05:12;4.00;;;3.10;;
5845;SDS011;2949;50.778;7.094;2022-09-13T03:07:38;5.53;;;3.50;;
5845;SDS011;2949;50.778;7.094;2022-09-13T03:10:07;3.00;;;2.80;;
5845;SDS011;2949;50.778;7.094;2022-09-13T03:12:43;3.23;;;2.70;;
5845;SDS011;2949;50.778;7.094;2022-09-13T03:23:33;5.23;;;3.40;;
5845;SDS011;2949;50.778;7.094;2022-09-13T03:26:24;6.70;;;3.57;;
5845;SDS011;2949;50.778;7.094;2022-09-13T03:29:01;5.17;;;4.07;;
5845;SDS011;2949;50.778;7.094;2022-09-13T03:31:49;4.17;;;3.80;;
5845;SDS011;2949;50.778;7.094;2022-09-13T03:34:29;4.30;;;3.63;;
5845;SDS011;2949;50.778;7.094;2022-09-13T03:37:14;3.33;;;3.13;;
5845;SDS011;2949;50.778;7.094;2022-09-13T03:43:07;4.87;;;4.30;;
5845;SDS011;2949;50.778;7.094;2022-09-13T03:45:40;4.87;;;3.53;;
5845;SDS011;2949;50.778;7.094;2022-09-13T03:48:10;4.47;;;3.27;;
5845;SDS011;2949;50.778;7.094;2022-09-13T03:50:36;4.20;;;3.80;;
5845;SDS011;2949;50.778;7.094;2022-09-13T03:53:05;3.83;;;3.40;;
5845;SDS011;2949;50.778;7.094;2022-09-13T03:55:34;6.07;;;3.70;;
5845;SDS011;2949;50.778;7.094;2022-09-13T03:58:04;3.93;;;3.27;;
5845;SDS011;2949;50.778;7.094;2022-09-13T04:00:30;5.33;;;3.23;;
5845;SDS011;2949;50.778;7.094;2022-09-13T04:02:55;7.13;;;4.03;;
5845;SDS011;2949;50.778;7.094;2022-09-13T04:05:21;4.10;;;3.70;;
5845;SDS011;2949;50.778;7.094;2022-09-13T04:07:46;4.10;;;3.70;;
5845;SDS011;2949;50.778;7.094;2022-09-13T04:10:12;4.60;;;3.83;;
5845;SDS011;2949;50.778;7.094;2022-09-13T04:12:38;3.70;;;3.40;;
5845;SDS011;2949;50.778;7.094;2022-09-13T04:15:05;3.43;;;3.10;;
5845;SDS011;2949;50.778;7.094;2022-09-13T04:17:31;5.57;;;3.80;;
5845;SDS011;2949;50.778;7.094;2022-09-13T04:19:57;7.27;;;4.20;;
5845;SDS011;2949;50.778;7.094;2022-09-13T04:22:22;3.70;;;3.30;;
5845;SDS011;2949;50.778;7.094;2022-09-13T04:24:48;7.60;;;3.80;;
5845;SDS011;2949;50.778;7.094;2022-09-13T04:27:13;3.90;;;3.37;;
5845;SDS011;2949;50.778;7.094;2022-09-13T04:29:39;5.80;;;3.90;;
5845;SDS011;2949;50.778;7.094;2022-09-13T04:32:04;4.73;;;3.40;;
5845;SDS011;2949;50.778;7.094;2022-09-13T04:34:30;4.57;;;3.63;;
5845;SDS011;2949;50.778;7.094;2022-09-13T04:36:55;5.83;;;3.40;;
5845;SDS011;2949;50.778;7.094;2022-09-13T04:39:21;4.17;;;3.43;;
5845;SDS011;2949;50.778;7.094;2022-09-13T04:41:48;4.27;;;3.87;;
5845;SDS011;2949;50.778;7.094;2022-09-13T04:44:15;9.47;;;4.00;;
5845;SDS011;2949;50.778;7.094;2022-09-13T04:46:41;5.93;;;3.27;;
5845;SDS011;2949;50.778;7.094;2022-09-13T04:49:10;4.10;;;3.80;;
5845;SDS011;2949;50.778;7.094;2022-09-13T04:51:36;7.57;;;3.47;;
5845;SDS011;2949;50.778;7.094;2022-09-13T04:54:02;4.83;;;3.10;;
5845;SDS011;2949;50.778;7.094;2022-09-13T04:56:27;4.40;;;4.00;;
5845;SDS011;2949;50.778;7.094;2022-09-13T04:58:54;4.10;;;3.70;;
5845;SDS011;2949;50.778;7.094;2022-09-13T05:01:20;6.10;;;3.80;;
5845;SDS011;2949;50.778;7.094;2022-09-13T05:03:47;9.33;;;3.60;;
5845;SDS011;2949;50.778;7.094;2022-09-13T05:06:15;4.00;;;3.70;;
5845;SDS011;2949;50.778;7.094;2022-09-13T05:08:48;12.50;;;4.10;;
5845;SDS011;2949;50.778;7.094;2022-09-13T05:11:16;8.30;;;4.10;;
5845;SDS011;2949;50.778;7.094;2022-09-13T05:13:41;5.33;;;3.57;;
5845;SDS011;2949;50.778;7.094;2022-09-13T05:16:07;5.50;;;3.33;;
5845;SDS011;2949;50.778;7.094;2022-09-13T05:18:33;8.30;;;4.40;;
5845;SDS011;2949;50.778;7.094;2022-09-13T05:21:01;9.20;;;3.70;;
5845;SDS011;2949;50.778;7.094;2022-09-13T05:23:28;4.77;;;3.07;;
5845;SDS011;2949;50.778;7.094;2022-09-13T05:25:56;7.17;;;3.57;;
5845;SDS011;2949;50.778;7.094;2022-09-13T05:28:23;6.77;;;3.33;;
5845;SDS011;2949;50.778;7.094;2022-09-13T05:30:54;6.57;;;4.63;;
5845;SDS011;2949;50.778;7.094;2022-09-13T05:33:20;4.80;;;4.20;;
5845;SDS011;2949;50.778;7.094;2022-09-13T05:35:46;4.10;;;3.70;;
5845;SDS011;2949;50.778;7.094;2022-09-13T05:38:11;3.70;;;3.37;;
5845;SDS011;2949;50.778;7.094;2022-09-13T05:40:37;6.93;;;3.47;;
5845;SDS011;2949;50.778;7.094;2022-09-13T05:43:02;3.80;;;3.50;;
5845;SDS011;2949;50.778;7.094;2022-09-13T05:45:28;7.13;;;4.23;;
5845;SDS011;2949;50.778;7.094;2022-09-13T05:47:53;7.70;;;3.80;;
5845;SDS011;2949;50.778;7.094;2022-09-13T05:50:19;10.13;;;4.10;;
5845;SDS011;2949;50.778;7.094;2022-09-13T05:52:50;4.17;;;3.40;;
5845;SDS011;2949;50.778;7.094;2022-09-13T05:55:19;4.00;;;3.20;;
5845;SDS011;2949;50.778;7.094;2022-09-13T05:57:46;4.73;;;3.37;;
5845;SDS011;2949;50.778;7.094;2022-09-13T06:00:12;4.00;;;3.60;;
5845;SDS011;2949;50.778;7.094;2022-09-13T06:02:38;4.63;;;3.37;;
5845;SDS011;2949;50.778;7.094;2022-09-13T06:05:04;3.47;;;3.13;;
5845;SDS011;2949;50.778;7.094;2022-09-13T06:07:30;5.20;;;3.50;;
5845;SDS011;2949;50.778;7.094;2022-09-13T06:09:55;4.10;;;3.40;;
5845;SDS011;2949;50.778;7.094;2022-09-13T06:12:22;5.10;;;3.40;;
5845;SDS011;2949;50.778;7.094;2022-09-13T06:14:47;3.47;;;2.77;;
5845;SDS011;2949;50.778;7.094;2022-09-13T06:17:13;3.07;;;2.87;;
5845;SDS011;2949;50.778;7.094;2022-09-13T06:19:39;2.93;;;2.73;;
5845;SDS011;2949;50.778;7.094;2022-09-13T06:22:04;2.27;;;2.17;;
5845;SDS011;2949;50.778;7.094;2022-09-13T06:24:30;4.93;;;3.43;;
5845;SDS011;2949;50.778;7.094;2022-09-13T06:26:56;4.83;;;3.40;;
5845;SDS011;2949;50.778;7.094;2022-09-13T06:29:22;10.33;;;3.13;;
5845;SDS011;2949;50.778;7.094;2022-09-13T06:31:47;7.43;;;2.90;;
5845;SDS011;2949;50.778;7.094;2022-09-13T06:34:13;3.63;;;2.77;;
5845;SDS011;2949;50.778;7.094;2022-09-13T06:36:40;4.87;;;3.20;;
5845;SDS011;2949;50.778;7.094;2022-09-13T06:39:06;4.03;;;3.00;;
5845;SDS011;2949;50.778;7.094;2022-09-13T06:41:32;3.40;;;2.87;;
5845;SDS011;2949;50.778;7.094;2022-09-13T06:43:58;6.13;;;2.83;;
5845;SDS011;2949;50.778;7.094;2022-09-13T06:46:28;11.90;;;2.70;;
5845;SDS011;2949;50.778;7.094;2022-09-13T06:49:00;2.97;;;2.30;;
5845;SDS011;2949;50.778;7.094;2022-09-13T06:51:27;4.03;;;2.50;;
5845;SDS011;2949;50.778;7.094;2022-09-13T06:53:56;4.40;;;2.93;;
5845;SDS011;2949;50.778;7.094;2022-09-13T06:56:26;2.10;;;2.00;;
5845;SDS011;2949;50.778;7.094;2022-09-13T06:58:55;3.97;;;2.50;;
5845;SDS011;2949;50.778;7.094;2022-09-13T07:03:58;2.60;;;2.40;;
5845;SDS011;2949;50.778;7.094;2022-09-13T07:06:26;4.47;;;2.77;;
5845;SDS011;2949;50.778;7.094;2022-09-13T07:08:54;3.50;;;2.23;;
5845;SDS011;2949;50.778;7.094;2022-09-13T07:11:21;1.87;;;1.77;;
5845;SDS011;2949;50.778;7.094;2022-09-13T07:16:14;5.93;;;1.97;;
5845;SDS011;2949;50.778;7.094;2022-09-13T07:18:40;2.80;;;2.60;;
5845;SDS011;2949;50.778;7.094;2022-09-13T07:21:07;3.23;;;2.93;;
5845;SDS011;2949;50.778;7.094;2022-09-13T07:23:34;4.47;;;2.57;;
5845;SDS011;2949;50.778;7.094;2022-09-13T07:26:01;4.23;;;2.10;;
5845;SDS011;2949;50.778;7.094;2022-09-13T07:28:39;4.37;;;2.60;;
5845;SDS011;2949;50.778;7.094;2022-09-13T07:31:07;3.90;;;2.03;;
5845;SDS011;2949;50.778;7.094;2022-09-13T07:33:38;2.30;;;2.10;;
5845;SDS011;2949;50.778;7.094;2022-09-13T07:36:04;2.40;;;2.20;;
5845;SDS011;2949;50.778;7.094;2022-09-13T07:38:48;25.87;;;3.23;;
5845;SDS011;2949;50.778;7.094;2022-09-13T07:41:16;2.50;;;2.40;;
5845;SDS011;2949;50.778;7.094;2022-09-13T07:43:43;2.07;;;1.60;;
5845;SDS011;2949;50.778;7.094;2022-09-13T07:46:09;5.10;;;2.00;;
5845;SDS011;2949;50.778;7.094;2022-09-13T07:48:38;2.20;;;2.00;;
5845;SDS011;2949;50.778;7.094;2022-09-13T07:53:37;3.20;;;1.87;;
5845;SDS011;2949;50.778;7.094;2022-09-13T07:56:11;2.67;;;2.30;;
5845;SDS011;2949;50.778;7.094;2022-09-13T07:58:39;3.33;;;2.00;;
5845;SDS011;2949;50.778;7.094;2022-09-13T08:01:07;5.03;;;1.80;;
5845;SDS011;2949;50.778;7.094;2022-09-13T08:03:41;1.60;;;1.50;;
5845;SDS011;2949;50.778;7.094;2022-09-13T08:06:06;2.13;;;2.03;;
5845;SDS011;2949;50.778;7.094;2022-09-13T08:08:32;2.00;;;1.90;;
5845;SDS011;2949;50.778;7.094;2022-09-13T08:11:00;1.60;;;1.50;;
5845;SDS011;2949;50.778;7.094;2022-09-13T08:13:26;4.87;;;1.67;;
5845;SDS011;2949;50.778;7.094;2022-09-13T08:15:53;1.87;;;1.77;;
5845;SDS011;2949;50.778;7.094;2022-09-13T08:18:19;4.20;;;2.17;;
5845;SDS011;2949;50.778;7.094;2022-09-13T08:20:45;3.27;;;1.50;;
5845;SDS011;2949;50.778;7.094;2022-09-13T08:23:11;5.90;;;1.90;;
5845;SDS011;2949;50.778;7.094;2022-09-13T08:25:37;2.20;;;1.80;;
5845;SDS011;2949;50.778;7.094;2022-09-13T08:28:07;2.20;;;1.90;;
5845;SDS011;2949;50.778;7.094;2022-09-13T08:30:37;1.83;;;1.73;;
5845;SDS011;2949;50.778;7.094;2022-09-13T08:33:03;2.20;;;2.00;;
5845;SDS011;2949;50.778;7.094;2022-09-13T08:35:29;4.30;;;1.77;;
5845;SDS011;2949;50.778;7.094;2022-09-13T08:37:56;1.67;;;1.57;;
5845;SDS011;2949;50.778;7.094;2022-09-13T08:40:22;3.13;;;2.10;;
5845;SDS011;2949;50.778;7.094;2022-09-13T08:42:55;2.10;;;1.90;;
5845;SDS011;2949;50.778;7.094;2022-09-13T08:45:30;1.30;;;1.30;;
5845;SDS011;2949;50.778;7.094;2022-09-13T08:47:56;1.80;;;1.70;;
5845;SDS011;2949;50.778;7.094;2022-09-13T08:50:32;1.53;;;1.30;;
5845;SDS011;2949;50.778;7.094;2022-09-13T08:55:39;1.73;;;1.40;;
5845;SDS011;2949;50.778;7.094;2022-09-13T09:01:13;10.43;;;1.60;;
5845;SDS011;2949;50.778;7.094;2022-09-13T09:06:39;4.00;;;1.40;;
5845;SDS011;2949;50.778;7.094;2022-09-13T09:09:07;7.50;;;1.40;;
5845;SDS011;2949;50.778;7.094;2022-09-13T09:11:40;2.27;;;1.80;;
5845;SDS011;2949;50.778;7.094;2022-09-13T09:14:14;4.30;;;1.80;;
5845;SDS011;2949;50.778;7.094;2022-09-13T09:16:59;1.90;;;1.70;;
5845;SDS011;2949;50.778;7.094;2022-09-13T09:22:01;5.23;;;1.90;;
5845;SDS011;2949;50.778;7.094;2022-09-13T09:24:31;3.83;;;1.40;;
5845;SDS011;2949;50.778;7.094;2022-09-13T09:27:00;2.87;;;1.60;;
5845;SDS011;2949;50.778;7.094;2022-09-13T09:29:33;2.27;;;1.50;;
5845;SDS011;2949;50.778;7.094;2022-09-13T09:34:48;1.83;;;1.43;;
5845;SDS011;2949;50.778;7.094;2022-09-13T09:37:41;2.53;;;1.40;;
5845;SDS011;2949;50.778;7.094;2022-09-13T09:40:14;2.80;;;1.30;;
5845;SDS011;2949;50.778;7.094;2022-09-13T09:42:42;2.10;;;1.47;;
5845;SDS011;2949;50.778;7.094;2022-09-13T09:45:18;1.80;;;1.07;;
5845;SDS011;2949;50.778;7.094;2022-09-13T09:47:56;0.90;;;0.90;;
5845;SDS011;2949;50.778;7.094;2022-09-13T09:50:27;4.93;;;1.37;;
5845;SDS011;2949;50.778;7.094;2022-09-13T09:52:58;10.73;;;2.17;;
5845;SDS011;2949;50.778;7.094;2022-09-13T09:55:31;3.10;;;1.77;;
5845;SDS011;2949;50.778;7.094;2022-09-13T09:58:04;6.33;;;2.00;;
5845;SDS011;2949;50.778;7.094;2022-09-13T10:00:34;2.00;;;1.80;;
5845;SDS011;2949;50.778;7.094;2022-09-13T10:03:15;5.83;;;1.50;;
5845;SDS011;2949;50.778;7.094;2022-09-13T10:05:43;3.90;;;1.90;;
5845;SDS011;2949;50.778;7.094;2022-09-13T10:08:22;2.03;;;1.40;;
5845;SDS011;2949;50.778;7.094;2022-09-13T10:10:55;2.30;;;2.03;;
5845;SDS011;2949;50.778;7.094;2022-09-13T10:13:23;8.70;;;2.37;;
5845;SDS011;2949;50.778;7.094;2022-09-13T10:15:56;4.70;;;2.07;;
5845;SDS011;2949;50.778;7.094;2022-09-13T10:18:24;2.07;;;1.90;;
5845;SDS011;2949;50.778;7.094;2022-09-13T10:21:05;2.07;;;1.90;;
5845;SDS011;2949;50.778;7.094;2022-09-13T10:23:43;2.50;;;1.63;;
5845;SDS011;2949;50.778;7.094;2022-09-13T10:26:11;3.87;;;1.70;;
5845;SDS011;2949;50.778;7.094;2022-09-13T10:31:20;3.70;;;1.60;;
5845;SDS011;2949;50.778;7.094;2022-09-13T10:33:56;1.00;;;1.00;;
5845;SDS011;2949;50.778;7.094;2022-09-13T10:36:23;2.83;;;1.47;;
5845;SDS011;2949;50.778;7.094;2022-09-13T10:39:00;5.20;;;1.30;;
5845;SDS011;2949;50.778;7.094;2022-09-13T10:41:27;1.97;;;1.37;;
5845;SDS011;2949;50.778;7.094;2022-09-13T10:43:56;3.73;;;1.33;;
5845;SDS011;2949;50.778;7.094;2022-09-13T10:46:23;1.87;;;1.07;;
5845;SDS011;2949;50.778;7.094;2022-09-13T10:48:51;1.40;;;1.00;;
5845;SDS011;2949;50.778;7.094;2022-09-13T10:56:42;4.87;;;1.20;;
5845;SDS011;2949;50.778;7.094;2022-09-13T10:59:21;2.30;;;1.67;;
5845;SDS011;2949;50.778;7.094;2022-09-13T11:01:55;3.93;;;1.20;;
5845;SDS011;2949;50.778;7.094;2022-09-13T11:10:36;2.57;;;1.27;;
5845;SDS011;2949;50.778;7.094;2022-09-13T11:15:52;4.83;;;1.30;;
5845;SDS011;2949;50.778;7.094;2022-09-13T11:21:27;3.77;;;1.57;;
5845;SDS011;2949;50.778;7.094;2022-09-13T11:27:07;1.33;;;1.23;;
5845;SDS011;2949;50.778;7.094;2022-09-13T11:29:59;6.73;;;1.20;;
5845;SDS011;2949;50.778;7.094;2022-09-13T11:46:34;1.30;;;1.20;;
5845;SDS011;2949;50.778;7.094;2022-09-13T11:55:26;2.17;;;1.03;;
5845;SDS011;2949;50.778;7.094;2022-09-13T11:57:32;7.67;;;1.70;;
5845;SDS011;2949;50.778;7.094;2022-09-13T12:00:08;2.30;;;1.63;;
5845;SDS011;2949;50.778;7.094;2022-09-13T12:03:05;1.97;;;1.10;;
5845;SDS011;2949;50.778;7.094;2022-09-13T12:05:49;1.33;;;1.20;;
5845;SDS011;2949;50.778;7.094;2022-09-13T12:08:19;1.63;;;1.00;;
5845;SDS011;2949;50.778;7.094;2022-09-13T12:14:01;5.47;;;1.60;;
5845;SDS011;2949;50.778;7.094;2022-09-13T12:16:11;5.10;;;1.53;;
5845;SDS011;2949;50.778;7.094;2022-09-13T12:18:48;2.20;;;1.30;;
5845;SDS011;2949;50.778;7.094;2022-09-13T12:21:20;2.73;;;1.13;;
5845;SDS011;2949;50.778;7.094;2022-09-13T12:26:51;4.83;;;1.07;;
5845;SDS011;2949;50.778;7.094;2022-09-13T12:29:24;8.40;;;1.50;;
5845;SDS011;2949;50.778;7.094;2022-09-13T12:32:08;2.43;;;1.03;;
5845;SDS011;2949;50.778;7.094;2022-09-13T13:00:10;4.20;;;1.53;;
5845;SDS011;2949;50.778;7.094;2022-09-13T13:02:44;4.03;;;1.37;;
5845;SDS011;2949;50.778;7.094;2022-09-13T13:05:23;4.53;;;1.33;;
5845;SDS011;2949;50.778;7.094;2022-09-13T13:07:53;3.17;;;1.43;;
5845;SDS011;2949;50.778;7.094;2022-09-13T13:10:31;3.20;;;1.30;;
5845;SDS011;2949;50.778;7.094;2022-09-13T13:13:08;5.83;;;1.50;;
5845;SDS011;2949;50.778;7.094;2022-09-13T13:18:19;4.70;;;1.50;;
5845;SDS011;2949;50.778;7.094;2022-09-13T13:31:09;6.50;;;1.77;;
5845;SDS011;2949;50.778;7.094;2022-09-13T13:33:58;3.33;;;1.60;;
5845;SDS011;2949;50.778;7.094;2022-09-13T13:39:11;2.00;;;1.40;;
5845;SDS011;2949;50.778;7.094;2022-09-13T13:46:51;6.00;;;1.40;;
5845;SDS011;2949;50.778;7.094;2022-09-13T13:57:22;2.60;;;1.70;;
5845;SDS011;2949;50.778;7.094;2022-09-13T13:59:55;5.03;;;1.20;;
5845;SDS011;2949;50.778;7.094;2022-09-13T14:08:25;7.00;;;1.40;;
5845;SDS011;2949;50.778;7.094;2022-09-13T14:11:02;9.43;;;1.13;;
5845;SDS011;2949;50.778;7.094;2022-09-13T14:16:11;1.47;;;1.20;;
5845;SDS011;2949;50.778;7.094;2022-09-13T14:21:30;7.03;;;1.20;;
5845;SDS011;2949;50.778;7.094;2022-09-13T14:26:48;6.20;;;1.50;;
5845;SDS011;2949;50.778;7.094;2022-09-13T14:29:18;1.47;;;0.90;;
5845;SDS011;2949;50.778;7.094;2022-09-13T14:31:49;5.27;;;1.57;;
5845;SDS011;2949;50.778;7.094;2022-09-13T14:34:26;1.73;;;1.07;;
5845;SDS011;2949;50.778;7.094;2022-09-13T14:36:55;1.53;;;1.20;;
5845;SDS011;2949;50.778;7.094;2022-09-13T14:39:23;4.67;;;1.20;;
5845;SDS011;2949;50.778;7.094;2022-09-13T14:41:57;2.73;;;2.53;;
5845;SDS011;2949;50.778;7.094;2022-09-13T14:44:35;7.83;;;1.63;;
5845;SDS011;2949;50.778;7.094;2022-09-13T14:47:11;3.20;;;1.27;;
5845;SDS011;2949;50.778;7.094;2022-09-13T14:49:45;7.13;;;1.50;;
5845;SDS011;2949;50.778;7.094;2022-09-13T14:52:20;7.30;;;1.13;;
5845;SDS011;2949;50.778;7.094;2022-09-13T14:54:53;3.37;;;1.13;;
5845;SDS011;2949;50.778;7.094;2022-09-13T15:00:04;3.97;;;1.30;;
5845;SDS011;2949;50.778;7.094;2022-09-13T15:02:39;4.57;;;1.00;;
5845;SDS011;2949;50.778;7.094;2022-09-13T15:05:11;7.07;;;1.17;;
5845;SDS011;2949;50.778;7.094;2022-09-13T15:07:39;2.73;;;1.33;;
5845;SDS011;2949;50.778;7.094;2022-09-13T15:12:34;2.00;;;1.10;;
5845;SDS011;2949;50.778;7.094;2022-09-13T15:20:24;2.03;;;0.87;;
5845;SDS011;2949;50.778;7.094;2022-09-13T15:22:53;2.43;;;0.90;;
5845;SDS011;2949;50.778;7.094;2022-09-13T15:25:28;3.73;;;1.00;;
5845;SDS011;2949;50.778;7.094;2022-09-13T15:27:55;1.33;;;1.00;;
5845;SDS011;2949;50.778;7.094;2022-09-13T15:30:24;2.50;;;0.90;;
5845;SDS011;2949;50.778;7.094;2022-09-13T15:35:39;1.87;;;1.17;;
5845;SDS011;2949;50.778;7.094;2022-09-13T15:40:44;1.33;;;1.27;;
5845;SDS011;2949;50.778;7.094;2022-09-13T15:43:11;2.57;;;1.33;;
5845;SDS011;2949;50.778;7.094;2022-09-13T15:45:37;5.20;;;1.40;;
5845;SDS011;2949;50.778;7.094;2022-09-13T15:48:03;5.47;;;1.33;;
5845;SDS011;2949;50.778;7.094;2022-09-13T15:50:29;2.33;;;1.23;;
5845;SDS011;2949;50.778;7.094;2022-09-13T15:52:57;2.50;;;1.20;;
5845;SDS011;2949;50.778;7.094;2022-09-13T15:55:24;2.20;;;1.17;;
5845;SDS011;2949;50.778;7.094;2022-09-13T15:57:51;1.17;;;1.07;;
5845;SDS011;2949;50.778;7.094;2022-09-13T16:00:24;8.13;;;1.50;;
5845;SDS011;2949;50.778;7.094;2022-09-13T16:02:51;4.60;;;1.47;;
5845;SDS011;2949;50.778;7.094;2022-09-13T16:05:17;2.77;;;1.43;;
5845;SDS011;2949;50.778;7.094;2022-09-13T16:07:43;5.77;;;2.07;;
5845;SDS011;2949;50.778;7.094;2022-09-13T16:10:10;4.63;;;1.70;;
5845;SDS011;2949;50.778;7.094;2022-09-13T16:12:39;6.03;;;1.40;;
5845;SDS011;2949;50.778;7.094;2022-09-13T16:15:04;3.67;;;1.70;;
5845;SDS011;2949;50.778;7.094;2022-09-13T16:17:30;2.87;;;1.50;;
5845;SDS011;2949;50.778;7.094;2022-09-13T16:19:56;4.67;;;2.00;;
5845;SDS011;2949;50.778;7.094;2022-09-13T16:22:22;8.87;;;1.47;;
5845;SDS011;2949;50.778;7.094;2022-09-13T16:24:47;13.50;;;1.43;;
5845;SDS011;2949;50.778;7.094;2022-09-13T16:27:14;4.17;;;1.60;;
5845;SDS011;2949;50.778;7.094;2022-09-13T16:29:41;2.30;;;1.10;;
5845;SDS011;2949;50.778;7.094;2022-09-13T16:32:07;8.67;;;1.60;;
5845;SDS011;2949;50.778;7.094;2022-09-13T16:34:33;1.63;;;1.13;;
5845;SDS011;2949;50.778;7.094;2022-09-13T16:36:59;4.90;;;2.10;;
5845;SDS011;2949;50.778;7.094;2022-09-13T16:39:24;6.23;;;1.60;;
5845;SDS011;2949;50.778;7.094;2022-09-13T16:41:50;6.50;;;1.87;;
5845;SDS011;2949;50.778;7.094;2022-09-13T16:44:16;3.53;;;1.70;;
5845;SDS011;2949;50.778;7.094;2022-09-13T16:46:42;4.23;;;1.90;;
5845;SDS011;2949;50.778;7.094;2022-09-13T16:49:08;5.90;;;1.57;;
5845;SDS011;2949;50.778;7.094;2022-09-13T16:51:34;7.70;;;2.10;;
5845;SDS011;2949;50.778;7.094;2022-09-13T16:54:00;5.60;;;2.50;;
5845;SDS011;2949;50.778;7.094;2022-09-13T16:56:26;6.00;;;2.33;;
5845;SDS011;2949;50.778;7.094;2022-09-13T16:58:52;5.23;;;2.13;;
5845;SDS011;2949;50.778;7.094;2022-09-13T17:01:22;3.90;;;2.47;;
5845;SDS011;2949;50.778;7.094;2022-09-13T17:03:50;9.87;;;1.83;;
5845;SDS011;2949;50.778;7.094;2022-09-13T17:06:16;3.70;;;1.97;;
5845;SDS011;2949;50.778;7.094;2022-09-13T17:08:54;6.73;;;2.63;;
5845;SDS011;2949;50.778;7.094;2022-09-13T17:11:28;5.73;;;2.30;;
5845;SDS011;2949;50.778;7.094;2022-09-13T17:13:55;3.43;;;2.57;;
5845;SDS011;2949;50.778;7.094;2022-09-13T17:18:58;9.13;;;2.50;;
5845;SDS011;2949;50.778;7.094;2022-09-13T17:21:25;8.07;;;2.70;;
5845;SDS011;2949;50.778;7.094;2022-09-13T17:23:51;9.00;;;2.97;;
5845;SDS011;2949;50.778;7.094;2022-09-13T17:26:17;5.03;;;2.60;;
5845;SDS011;2949;50.778;7.094;2022-09-13T17:28:42;2.93;;;2.73;;
5845;SDS011;2949;50.778;7.094;2022-09-13T17:31:08;6.10;;;2.23;;
5845;SDS011;2949;50.778;7.094;2022-09-13T17:33:34;2.60;;;2.07;;
5845;SDS011;2949;50.778;7.094;2022-09-13T17:36:00;7.10;;;2.77;;
5845;SDS011;2949;50.778;7.094;2022-09-13T17:38:32;5.10;;;2.90;;
5845;SDS011;2949;50.778;7.094;2022-09-13T17:41:02;7.63;;;2.43;;
5845;SDS011;2949;50.778;7.094;2022-09-13T17:43:29;5.17;;;2.30;;
5845;SDS011;2949;50.778;7.094;2022-09-13T17:45:55;7.47;;;2.60;;
5845;SDS011;2949;50.778;7.094;2022-09-13T17:48:21;8.83;;;3.20;;
5845;SDS011;2949;50.778;7.094;2022-09-13T17:50:47;8.93;;;3.40;;
5845;SDS011;2949;50.778;7.094;2022-09-13T17:53:12;4.50;;;2.63;;
5845;SDS011;2949;50.778;7.094;2022-09-13T17:55:45;6.30;;;3.27;;
5845;SDS011;2949;50.778;7.094;2022-09-13T17:58:11;7.77;;;3.70;;
5845;SDS011;2949;50.778;7.094;2022-09-13T18:00:37;6.00;;;3.73;;
5845;SDS011;2949;50.778;7.094;2022-09-13T18:03:02;5.80;;;3.53;;
5845;SDS011;2949;50.778;7.094;2022-09-13T18:05:28;8.13;;;4.20;;
5845;SDS011;2949;50.778;7.094;2022-09-13T18:07:53;5.97;;;4.20;;
5845;SDS011;2949;50.778;7.094;2022-09-13T18:10:19;4.70;;;3.93;;
5845;SDS011;2949;50.778;7.094;2022-09-13T18:12:44;7.33;;;3.50;;
5845;SDS011;2949;50.778;7.094;2022-09-13T18:15:10;9.40;;;4.80;;
5845;SDS011;2949;50.778;7.094;2022-09-13T18:17:36;7.53;;;3.30;;
5845;SDS011;2949;50.778;7.094;2022-09-13T18:20:02;11.20;;;4.60;;
5845;SDS011;2949;50.778;7.094;2022-09-13T18:22:27;8.73;;;3.77;;
5845;SDS011;2949;50.778;7.094;2022-09-13T18:24:53;13.23;;;3.93;;
5845;SDS011;2949;50.778;7.094;2022-09-13T18:27:19;5.13;;;3.80;;
5845;SDS011;2949;50.778;7.094;2022-09-13T18:29:45;8.60;;;4.80;;
5845;SDS011;2949;50.778;7.094;2022-09-13T18:32:10;9.10;;;5.10;;
5845;SDS011;2949;50.778;7.094;2022-09-13T18:34:36;9.27;;;4.73;;
5845;SDS011;2949;50.778;7.094;2022-09-13T18:37:01;11.63;;;6.20;;
5845;SDS011;2949;50.778;7.094;2022-09-13T18:39:27;6.80;;;5.50;;
5845;SDS011;2949;50.778;7.094;2022-09-13T18:41:52;10.53;;;5.60;;
5845;SDS011;2949;50.778;7.094;2022-09-13T18:44:18;7.33;;;4.97;;
5845;SDS011;2949;50.778;7.094;2022-09-13T18:46:44;8.83;;;4.30;;
5845;SDS011;2949;50.778;7.094;2022-09-13T18:49:10;11.20;;;4.70;;
5845;SDS011;2949;50.778;7.094;2022-09-13T18:51:37;4.60;;;4.00;;